Time;durP1;ratioP1;P1;durP2;ratioP2;P2;SDS_P1;SDS_P2;PMS_P1;PMS_P2;Temp;Humidity;BMP_temperature;BMP_pressure;BME280_temperature;BME280_humidity;BME280_pressure;Samples;Min_cycle;Max_cycle;Signal;HPM_P1;HPM_P2
2021/04/05 00:00:18;;;;;;;8.70;5.20;;;4.90;98.40;;;;;;5070199;28;20116;-72
2021/04/05 00:02:44;;;;;;;7.25;5.00;;;4.70;98.00;;;;;;5071695;28;20035;-72
2021/04/05 00:05:14;;;;;;;7.43;5.68;;;4.70;99.40;;;;;;5070134;28;20028;-72
2021/04/05 00:07:44;;;;;;;8.63;5.85;;;4.60;99.90;;;;;;5058393;28;20033;-72
2021/04/05 00:10:30;;;;;;;;;;;4.30;99.90;;;;;;5051867;28;20117;-72
2021/04/05 00:12:58;;;;;;;6.68;4.47;;;4.50;99.90;;;;;;5051453;28;19959;-72
2021/04/05 00:15:24;;;;;;;10.02;4.18;;;4.80;99.10;;;;;;5061794;28;20035;-72
2021/04/05 00:17:50;;;;;;;10.05;4.80;;;4.50;98.20;;;;;;5071806;28;20104;-72
2021/04/05 00:20:22;;;;;;;8.75;4.97;;;4.20;99.10;;;;;;5071089;28;20056;-72
2021/04/05 00:22:48;;;;;;;5.57;3.85;;;4.30;99.90;;;;;;5070976;28;20032;-72
2021/04/05 00:25:14;;;;;;;4.43;3.53;;;4.50;99.90;;;;;;5071277;28;20412;-72
2021/04/05 00:27:41;;;;;;;5.55;4.43;;;4.30;99.30;;;;;;5070751;28;20111;-72
2021/04/05 00:30:19;;;;;;;8.98;4.50;;;4.30;99.30;;;;;;5068712;28;20021;-72
2021/04/05 00:32:46;;;;;;;6.22;4.60;;;4.20;99.90;;;;;;5070400;28;20029;-72
2021/04/05 00:35:14;;;;;;;6.07;4.25;;;4.10;99.90;;;;;;5071364;28;20033;-72
2021/04/05 00:37:40;;;;;;;8.43;4.38;;;4.20;99.90;;;;;;5071595;28;20036;-72
2021/04/05 00:40:09;;;;;;;11.20;4.90;;;4.10;99.90;;;;;;5070805;28;20047;-72
2021/04/05 00:42:35;;;;;;;5.93;3.85;;;4.30;99.90;;;;;;5071403;28;20031;-72
2021/04/05 00:45:06;;;;;;;7.00;4.18;;;4.40;99.90;;;;;;5070784;28;20024;-72
2021/04/05 00:47:33;;;;;;;6.43;4.78;;;4.40;99.90;;;;;;5071170;28;20431;-72
2021/04/05 00:49:58;;;;;;;6.57;4.68;;;4.50;99.90;;;;;;5071418;28;20043;-72
2021/04/05 00:52:24;;;;;;;9.43;4.07;;;4.50;99.90;;;;;;5058116;28;20509;-72
2021/04/05 00:54:50;;;;;;;5.43;3.92;;;4.50;99.90;;;;;;5052489;28;20508;-72
2021/04/05 00:57:16;;;;;;;7.38;4.30;;;4.70;99.90;;;;;;5051047;28;20052;-72
2021/04/05 00:59:42;;;;;;;7.97;3.90;;;4.80;99.90;;;;;;5061687;28;20029;-72
2021/04/05 01:02:08;;;;;;;5.55;3.75;;;4.60;99.70;;;;;;5071154;28;20017;-72
2021/04/05 01:04:34;;;;;;;4.20;3.65;;;4.70;99.90;;;;;;5069127;28;20020;-72
2021/04/05 01:07:00;;;;;;;6.55;5.30;;;4.70;99.90;;;;;;5070951;28;20033;-72
2021/04/05 01:09:25;;;;;;;6.20;4.00;;;4.50;99.90;;;;;;5070999;28;20503;-72
2021/04/05 01:11:51;;;;;;;5.40;4.45;;;4.30;99.90;;;;;;5070740;28;20392;-72
2021/04/05 01:14:17;;;;;;;8.00;4.18;;;4.40;99.90;;;;;;5069513;28;20031;-72
2021/04/05 01:16:45;;;;;;;6.05;4.53;;;4.30;99.90;;;;;;5070870;28;20442;-72
2021/04/05 01:19:12;;;;;;;7.75;3.95;;;4.20;99.90;;;;;;5070813;28;20119;-72
2021/04/05 01:21:39;;;;;;;6.55;4.22;;;4.30;99.90;;;;;;5070278;28;20110;-72
2021/04/05 01:24:05;;;;;;;4.72;3.58;;;4.20;99.90;;;;;;5064812;28;20400;-72
2021/04/05 01:26:33;;;;;;;6.78;4.18;;;4.00;99.90;;;;;;5050727;28;20059;-72
2021/04/05 01:28:59;;;;;;;5.38;3.17;;;4.20;99.90;;;;;;5051886;28;20485;-72
2021/04/05 01:31:24;;;;;;;4.07;3.08;;;4.30;99.90;;;;;;5050878;28;20040;-72
2021/04/05 01:33:52;;;;;;;4.95;3.80;;;4.30;99.90;;;;;;5054946;28;20025;-72
2021/04/05 01:36:18;;;;;;;4.55;3.20;;;4.20;99.90;;;;;;5074411;28;20024;-72
2021/04/05 01:38:46;;;;;;;5.47;3.47;;;3.90;98.70;;;;;;5073285;28;20411;-72
2021/04/05 01:41:18;;;;;;;7.45;4.05;;;3.70;99.90;;;;;;5074487;28;20028;-72
2021/04/05 01:43:44;;;;;;;5.32;3.50;;;3.70;99.90;;;;;;5074227;28;20025;-72
2021/04/05 01:46:13;;;;;;;8.10;4.00;;;3.90;99.90;;;;;;5074472;28;20032;-72
2021/04/05 01:48:40;;;;;;;4.75;3.30;;;4.20;99.90;;;;;;5074159;28;20051;-72
2021/04/05 01:51:07;;;;;;;4.97;3.35;;;4.30;99.90;;;;;;5073852;28;20543;-72
2021/04/05 01:53:34;;;;;;;4.72;2.92;;;4.20;99.10;;;;;;5074123;28;20024;-72
2021/04/05 01:56:01;;;;;;;3.83;2.97;;;3.80;98.70;;;;;;5073894;28;20059;-72
2021/04/05 01:58:28;;;;;;;5.43;3.50;;;3.50;99.90;;;;;;5074170;28;20070;-72
2021/04/05 02:00:56;;;;;;;4.70;3.40;;;3.40;99.90;;;;;;5073956;28;20056;-72
2021/04/05 02:03:22;;;;;;;5.18;3.95;;;3.70;99.90;;;;;;5071830;28;20055;-72
2021/04/05 02:05:52;;;;;;;5.72;4.25;;;4.10;99.90;;;;;;5062002;28;20024;-72
2021/04/05 02:08:22;;;;;;;6.18;3.72;;;4.30;99.90;;;;;;5073979;28;20025;-72
2021/04/05 02:10:48;;;;;;;5.45;4.53;;;4.10;99.90;;;;;;5073509;28;20524;-72
2021/04/05 02:13:14;;;;;;;4.45;3.78;;;4.00;99.90;;;;;;5073477;28;20020;-72
2021/04/05 02:15:40;;;;;;;6.30;4.75;;;3.90;99.90;;;;;;5071316;28;20051;-72
2021/04/05 02:18:06;;;;;;;8.00;4.40;;;3.90;99.90;;;;;;5073660;28;20480;-72
2021/04/05 02:20:33;;;;;;;6.72;4.35;;;3.90;99.90;;;;;;5073870;28;20031;-72
2021/04/05 02:22:59;;;;;;;7.68;4.53;;;3.80;99.90;;;;;;5073666;28;20104;-72
2021/04/05 02:25:28;;;;;;;3.75;3.35;;;3.80;99.90;;;;;;5071137;28;20047;-72
2021/04/05 02:27:55;;;;;;;3.90;3.15;;;3.70;99.90;;;;;;5073325;28;20028;-72
2021/04/05 02:30:27;;;;;;;4.82;2.92;;;3.60;99.90;;;;;;5073636;28;20031;-72
2021/04/05 02:33:03;;;;;;;5.85;3.35;;;3.70;99.90;;;;;;5073092;28;20077;-72
2021/04/05 02:35:32;;;;;;;6.03;3.88;;;3.50;99.90;;;;;;5072793;28;20024;-72
2021/04/05 02:38:01;;;;;;;4.22;3.22;;;3.40;99.90;;;;;;5073277;28;20103;-72
2021/04/05 02:40:27;;;;;;;5.85;3.70;;;3.40;99.90;;;;;;5073175;28;20079;-72
2021/04/05 02:42:56;;;;;;;5.82;3.40;;;3.50;99.90;;;;;;5072994;28;20025;-72
2021/04/05 02:45:24;;;;;;;3.88;3.22;;;3.70;99.90;;;;;;5072081;28;20078;-71
2021/04/05 02:47:53;;;;;;;6.07;3.88;;;3.80;99.90;;;;;;5071960;28;20388;-72
2021/04/05 02:50:22;;;;;;;4.93;3.80;;;3.50;99.90;;;;;;5073318;28;20096;-72
2021/04/05 02:52:48;;;;;;;6.95;4.00;;;3.20;99.90;;;;;;5073024;28;20059;-72
2021/04/05 02:55:15;;;;;;;6.07;4.32;;;3.20;99.90;;;;;;5072824;28;20429;-72
2021/04/05 02:57:43;;;;;;;4.82;3.63;;;3.50;99.90;;;;;;5073021;28;20518;-72
2021/04/05 03:00:14;;;;;;;4.13;3.35;;;3.60;99.90;;;;;;5072182;28;20078;-72
2021/04/05 03:02:46;;;;;;;4.63;3.72;;;3.60;99.90;;;;;;5064785;28;20107;-72
2021/04/05 03:05:15;;;;;;;5.78;3.22;;;3.60;99.90;;;;;;5072080;28;20032;-72
2021/04/05 03:07:43;;;;;;;7.20;3.42;;;3.20;99.90;;;;;;5072886;28;20020;-72
2021/04/05 03:10:10;;;;;;;4.70;2.97;;;3.00;99.90;;;;;;5072284;28;20040;-72
2021/04/05 03:12:39;;;;;;;4.88;3.28;;;3.00;99.90;;;;;;5072691;28;20032;-72
2021/04/05 03:15:13;;;;;;;5.32;3.38;;;2.80;99.90;;;;;;5071953;28;20039;-72
2021/04/05 03:17:40;;;;;;;6.22;4.35;;;2.70;99.90;;;;;;5061992;28;20124;-72
2021/04/05 03:20:21;;;;;;;5.28;3.63;;;2.80;99.90;;;;;;5052361;28;20033;-72
2021/04/05 03:22:48;;;;;;;5.05;4.28;;;2.90;99.90;;;;;;5052308;28;20086;-72
2021/04/05 03:25:19;;;;;;;5.55;3.50;;;2.90;99.90;;;;;;5066900;28;20378;-72
2021/04/05 03:27:46;;;;;;;5.18;4.38;;;2.90;99.90;;;;;;5071942;28;20039;-72
2021/04/05 03:30:16;;;;;;;6.07;4.35;;;2.70;99.90;;;;;;5062641;28;20127;-72
2021/04/05 03:32:44;;;;;;;8.93;4.20;;;2.70;99.90;;;;;;5055019;28;20036;-72
2021/04/05 03:35:16;;;;;;;4.18;3.28;;;2.80;99.90;;;;;;5055656;28;20021;-72
2021/04/05 03:37:43;;;;;;;6.03;3.75;;;3.00;99.90;;;;;;5051634;28;20033;-72
2021/04/05 03:40:10;;;;;;;10.70;5.55;;;3.20;99.90;;;;;;5051985;28;20070;-72
2021/04/05 03:42:51;;;;;;;4.38;3.33;;;3.30;99.90;;;;;;5054825;28;20488;-72
2021/04/05 03:45:30;;;;;;;5.80;3.75;;;2.80;99.90;;;;;;5051941;28;20024;-72
2021/04/05 03:48:09;;;;;;;5.20;3.65;;;2.60;99.90;;;;;;5072092;28;20496;-72
2021/04/05 03:50:58;;;;;;;5.30;4.25;;;2.50;99.90;;;;;;5071784;28;20063;-72
2021/04/05 03:53:33;;;;;;;5.07;3.40;;;2.80;99.90;;;;;;5067479;28;20040;-72
2021/04/05 03:56:05;;;;;;;4.38;3.47;;;2.90;99.90;;;;;;5070831;28;20492;-72
2021/04/05 03:58:33;;;;;;;5.35;3.55;;;3.10;99.90;;;;;;5071753;28;20495;-72
2021/04/05 04:01:07;;;;;;;5.53;3.28;;;3.20;99.90;;;;;;5071944;28;20391;-72
2021/04/05 04:03:52;;;;;;;5.05;4.35;;;3.00;99.90;;;;;;5070813;28;20087;-72
2021/04/05 04:06:23;;;;;;;7.28;3.90;;;2.90;99.90;;;;;;5071416;28;20048;-72
2021/04/05 04:08:51;;;;;;;6.60;4.00;;;3.00;99.90;;;;;;5067087;28;20092;-72
2021/04/05 04:11:23;;;;;;;3.97;3.40;;;3.10;99.90;;;;;;5054961;28;20025;-72
2021/04/05 04:13:49;;;;;;;5.40;3.72;;;2.90;99.90;;;;;;5071773;28;20420;-72
2021/04/05 04:16:16;;;;;;;8.25;4.28;;;2.70;99.90;;;;;;5071592;28;20106;-72
2021/04/05 04:18:42;;;;;;;4.32;3.85;;;2.50;99.90;;;;;;5071601;28;20016;-73
2021/04/05 04:21:12;;;;;;;4.78;3.50;;;2.60;99.90;;;;;;5071361;28;20113;-73
2021/04/05 04:23:38;;;;;;;;;;;2.90;99.90;;;;;;5070033;28;20064;-72
2021/04/05 04:26:05;;;;;;;4.00;3.15;;;2.80;99.90;;;;;;5071220;28;19917;-72
2021/04/05 04:28:31;;;;;;;4.65;3.42;;;2.70;99.90;;;;;;5071326;28;20099;-72
2021/04/05 04:30:58;;;;;;;4.65;3.83;;;2.30;99.90;;;;;;5071687;28;20198;-72
2021/04/05 04:33:27;;;;;;;6.85;3.78;;;2.20;99.90;;;;;;5070626;28;20114;-72
2021/04/05 04:35:53;;;;;;;7.03;3.70;;;2.30;99.90;;;;;;5069319;28;20522;-72
2021/04/05 04:38:21;;;;;;;3.95;3.35;;;2.30;99.90;;;;;;5071649;28;20156;-72
2021/04/05 04:40:47;;;;;;;6.18;3.65;;;2.50;99.90;;;;;;5071436;28;20460;-71
2021/04/05 04:43:13;;;;;;;5.93;3.88;;;2.50;99.90;;;;;;5071558;28;20029;-72
2021/04/05 04:45:39;;;;;;;5.47;4.00;;;2.50;99.90;;;;;;5070656;28;20033;-72
2021/04/05 04:48:05;;;;;;;14.88;4.35;;;2.70;99.90;;;;;;5070176;28;20029;-72
2021/04/05 04:50:31;;;;;;;4.70;3.63;;;2.90;99.90;;;;;;5070304;28;20027;-72
2021/04/05 04:52:57;;;;;;;5.45;4.10;;;3.00;99.90;;;;;;5071374;28;20021;-72
2021/04/05 04:55:24;;;;;;;6.00;3.80;;;2.90;99.90;;;;;;5070307;28;20063;-72
2021/04/05 04:57:55;;;;;;;5.10;3.78;;;2.80;99.90;;;;;;5069537;28;20372;-72
2021/04/05 05:00:23;;;;;;;4.82;3.72;;;2.80;99.90;;;;;;5069314;28;20023;-72
2021/04/05 05:02:49;;;;;;;5.68;4.40;;;2.70;99.90;;;;;;5066892;28;20023;-72
2021/04/05 05:05:17;;;;;;;3.67;3.35;;;2.80;99.90;;;;;;5052363;28;20032;-72
2021/04/05 05:07:44;;;;;;;10.95;4.60;;;2.70;99.90;;;;;;5050395;28;20578;-72
2021/04/05 05:10:11;;;;;;;5.25;3.67;;;2.60;99.90;;;;;;5069380;28;20016;-72
2021/04/05 05:12:39;;;;;;;5.38;3.33;;;2.40;99.90;;;;;;5072567;28;20067;-72
2021/04/05 05:15:12;;;;;;;5.22;3.20;;;2.20;99.90;;;;;;5066419;28;20025;-72
2021/04/05 05:17:46;;;;;;;7.95;4.10;;;2.10;99.90;;;;;;5063418;28;20025;-72
2021/04/05 05:20:13;;;;;;;4.72;3.90;;;2.00;99.90;;;;;;5056704;28;20021;-72
2021/04/05 05:22:49;;;;;;;5.18;3.80;;;2.10;99.90;;;;;;5054336;28;20021;-72
2021/04/05 05:25:17;;;;;;;8.20;3.50;;;2.00;99.90;;;;;;5069177;28;20087;-72
2021/04/05 05:27:56;;;;;;;5.55;4.82;;;1.80;99.90;;;;;;5070649;28;20025;-72
2021/04/05 05:30:23;;;;;;;9.85;7.47;;;1.80;99.90;;;;;;5072483;28;20119;-72
2021/04/05 05:32:52;;;;;;;14.25;7.72;;;1.80;99.90;;;;;;5069983;28;20424;-72
2021/04/05 05:35:18;;;;;;;10.33;6.83;;;2.00;99.90;;;;;;5071817;28;20121;-72
2021/04/05 05:37:44;;;;;;;10.65;6.90;;;2.10;99.90;;;;;;5060438;28;20294;-72
2021/04/05 05:40:17;;;;;;;7.38;4.72;;;2.20;99.90;;;;;;5068477;28;20338;-72
2021/04/05 05:43:14;;;;;;;6.68;4.75;;;2.00;99.90;;;;;;5070662;28;20040;-72
2021/04/05 05:46:07;;;;;;;11.05;5.70;;;1.90;99.90;;;;;;5074580;28;20426;-72
2021/04/05 05:49:09;;;;;;;7.72;6.40;;;1.80;99.90;;;;;;5070073;28;20013;-72
2021/04/05 05:52:01;;;;;;;11.00;5.63;;;1.80;99.90;;;;;;5073358;28;20111;-72
2021/04/05 05:55:02;;;;;;;9.85;7.43;;;1.90;99.90;;;;;;5072387;28;20392;-72
2021/04/05 05:57:30;;;;;;;5.82;4.90;;;2.10;99.90;;;;;;5086229;28;20450;-72
2021/04/05 06:00:18;;;;;;;10.80;5.47;;;2.40;99.90;;;;;;5073058;28;20426;-72
2021/04/05 06:03:15;;;;;;;9.13;5.18;;;2.50;99.90;;;;;;5073667;28;20029;-72
2021/04/05 06:05:56;;;;;;;6.28;4.60;;;2.60;99.90;;;;;;5074121;28;20025;-72
2021/04/05 06:08:42;;;;;;;6.43;4.47;;;2.80;99.90;;;;;;5073211;28;20024;-72
2021/04/05 06:11:32;;;;;;;7.28;3.83;;;2.50;99.90;;;;;;5011584;28;20441;-72
2021/04/05 06:14:34;;;;;;;6.20;4.00;;;2.40;99.90;;;;;;5011202;28;20433;-72
2021/04/05 06:17:24;;;;;;;6.18;4.47;;;2.20;99.90;;;;;;4971201;28;20046;-72
2021/04/05 06:20:02;;;;;;;6.38;4.78;;;2.40;99.90;;;;;;4986745;28;20521;-72
2021/04/05 06:22:58;;;;;;;15.20;5.93;;;2.50;99.90;;;;;;4983694;28;20523;-73
2021/04/05 06:25:49;;;;;;;9.02;4.90;;;2.60;99.90;;;;;;4972541;28;20047;-73
2021/04/05 06:28:25;;;;;;;6.45;4.05;;;2.80;99.90;;;;;;4971135;28;20089;-76
2021/04/05 06:31:16;;;;;;;8.05;4.53;;;3.10;99.90;;;;;;4971786;28;20031;-73
2021/04/05 06:33:53;;;;;;;7.95;5.32;;;3.40;99.90;;;;;;4992028;28;20102;-74
2021/04/05 06:36:37;;;;;;;7.22;3.92;;;3.70;99.90;;;;;;4991437;28;20057;-74
2021/04/05 06:39:06;;;;;;;5.35;4.25;;;3.90;99.90;;;;;;4972741;28;20045;-74
2021/04/05 06:41:48;;;;;;;7.53;4.53;;;3.80;99.90;;;;;;4971853;28;20039;-74
2021/04/05 06:44:29;;;;;;;5.57;4.38;;;3.90;99.90;;;;;;4981227;28;20061;-74
2021/04/05 06:47:31;;;;;;;5.43;4.20;;;4.00;99.90;;;;;;4971240;28;20043;-74
2021/04/05 06:50:03;;;;;;;5.65;4.38;;;4.10;99.90;;;;;;5026267;28;20061;-74
2021/04/05 06:53:01;;;;;;;7.57;4.40;;;4.10;99.90;;;;;;5030259;28;20030;-74
2021/04/05 06:55:47;;;;;;;5.60;4.65;;;4.10;99.90;;;;;;5072872;28;20100;-74
2021/04/05 06:58:24;;;;;;;6.15;4.97;;;4.10;99.90;;;;;;5072438;28;20058;-74
2021/04/05 07:01:08;;;;;;;6.72;4.47;;;4.20;99.90;;;;;;5070494;28;20021;-74
2021/04/05 07:04:11;;;;;;;6.10;4.38;;;4.30;99.90;;;;;;5066276;28;20400;-74
2021/04/05 07:07:01;;;;;;;5.68;5.10;;;4.50;99.90;;;;;;5062395;28;20025;-73
2021/04/05 07:09:41;;;;;;;9.30;5.63;;;4.80;99.90;;;;;;5061789;28;20024;-74
2021/04/05 07:12:45;;;;;;;5.40;4.35;;;5.10;99.90;;;;;;5068896;28;20039;-74
2021/04/05 07:15:23;;;;;;;10.15;6.13;;;5.20;99.90;;;;;;5050555;28;20082;-74
2021/04/05 07:18:00;;;;;;;6.28;4.97;;;5.60;99.90;;;;;;5056963;28;20047;-74
2021/04/05 07:20:50;;;;;;;8.00;5.30;;;5.90;99.90;;;;;;5069434;28;20404;-74
2021/04/05 07:23:36;;;;;;;7.85;5.35;;;6.20;99.90;;;;;;5053198;28;20029;-74
2021/04/05 07:26:24;;;;;;;8.63;5.82;;;6.50;99.90;;;;;;5070081;28;20175;-73
2021/04/05 07:29:07;;;;;;;9.65;6.15;;;6.60;99.90;;;;;;5070175;28;20158;-74
2021/04/05 07:32:11;;;;;;;11.15;4.93;;;6.80;99.90;;;;;;5068855;28;20036;-74
2021/04/05 07:34:53;;;;;;;7.15;4.90;;;7.10;99.90;;;;;;5069129;28;20045;-74
2021/04/05 07:37:49;;;;;;;6.68;4.55;;;7.30;99.80;;;;;;5070019;28;20032;-74
2021/04/05 07:40:36;;;;;;;6.40;4.72;;;7.50;99.90;;;;;;5053206;28;20036;-74
2021/04/05 07:43:07;;;;;;;18.45;5.85;;;7.80;99.80;;;;;;5070010;28;20508;-74
2021/04/05 07:45:42;;;;;;;9.35;4.80;;;8.20;99.90;;;;;;5056405;28;20075;-74
2021/04/05 07:48:32;;;;;;;6.80;4.55;;;8.40;99.40;;;;;;5072153;28;20073;-74
2021/04/05 07:51:27;;;;;;;10.20;4.07;;;8.60;96.90;;;;;;5072119;28;20077;-74
2021/04/05 07:54:01;;;;;;;5.38;3.83;;;8.90;95.60;;;;;;5070606;28;20414;-74
2021/04/05 07:56:53;;;;;;;10.75;4.82;;;9.10;92.70;;;;;;5071888;28;20028;-74
2021/04/05 07:59:42;;;;;;;11.82;4.35;;;9.30;92.50;;;;;;5071916;28;20380;-74
2021/04/05 08:02:11;;;;;;;10.85;5.20;;;9.40;91.90;;;;;;5071900;28;20099;-74
2021/04/05 08:05:14;;;;;;;7.07;4.13;;;9.60;91.30;;;;;;5071529;28;20117;-74
2021/04/05 08:08:15;;;;;;;7.43;4.28;;;9.70;90.50;;;;;;5071561;28;20024;-74
2021/04/05 08:10:56;;;;;;;5.90;3.88;;;10.10;91.50;;;;;;5039101;28;20503;-74
2021/04/05 08:13:35;;;;;;;4.30;3.90;;;10.40;90.00;;;;;;5069953;28;20024;-74
2021/04/05 08:16:30;;;;;;;6.10;4.45;;;10.50;87.70;;;;;;5071641;28;20023;-74
2021/04/05 08:19:33;;;;;;;8.80;4.43;;;10.90;88.60;;;;;;5068443;28;20048;-74
2021/04/05 08:22:20;;;;;;;9.18;4.00;;;11.30;84.30;;;;;;5071857;28;20025;-74
2021/04/05 08:25:08;;;;;;;6.47;3.63;;;11.40;83.60;;;;;;5071499;28;20032;-74
2021/04/05 08:27:48;;;;;;;4.97;3.53;;;11.70;82.30;;;;;;5071285;28;20041;-74
2021/04/05 08:30:39;;;;;;;;;;;11.90;78.80;;;;;;5072147;28;20108;-74
2021/04/05 08:33:31;;;;;;;4.80;3.47;;;12.20;76.40;;;;;;5068452;28;20443;-74
2021/04/05 08:36:26;;;;;;;39.10;4.13;;;12.40;74.50;;;;;;5071269;28;20036;-74
2021/04/05 08:39:19;;;;;;;6.63;3.10;;;12.80;76.20;;;;;;5071367;28;20028;-74
2021/04/05 08:41:57;;;;;;;21.50;4.13;;;13.40;75.10;;;;;;5071565;28;20022;-74
2021/04/05 08:44:32;;;;;;;29.30;4.80;;;13.90;74.20;;;;;;5075519;28;20104;-74
2021/04/05 08:47:00;;;;;;;4.90;3.40;;;14.20;71.80;;;;;;5074117;28;20488;-74
2021/04/05 08:49:26;;;;;;;5.68;3.25;;;14.20;70.80;;;;;;5075620;28;20506;-74
2021/04/05 08:52:01;;;;;;;6.50;2.92;;;14.50;70.00;;;;;;5074072;28;20032;-74
2021/04/05 08:54:29;;;;;;;3.97;3.45;;;14.60;68.00;;;;;;5075578;28;20033;-74
2021/04/05 08:57:02;;;;;;;6.40;3.97;;;14.90;69.50;;;;;;5074641;28;20032;-74
2021/04/05 08:59:39;;;;;;;3.40;3.10;;;15.40;64.10;;;;;;5075435;28;20017;-74
2021/04/05 09:02:37;;;;;;;11.30;4.72;;;18.40;55.30;;;;;;5075177;28;20017;-74
2021/04/05 09:05:25;;;;;;;5.38;3.47;;;18.90;50.90;;;;;;5075182;28;20021;-74
2021/04/05 09:07:58;;;;;;;3.22;2.92;;;21.00;48.30;;;;;;5075081;28;20498;-74
2021/04/05 09:10:34;;;;;;;4.95;3.65;;;20.80;47.50;;;;;;5075228;28;20021;-74
2021/04/05 09:13:06;;;;;;;4.88;3.63;;;21.70;48.20;;;;;;5073349;28;20029;-74
2021/04/05 09:15:37;;;;;;;5.60;3.60;;;21.60;45.70;;;;;;5075097;28;20017;-75
2021/04/05 09:18:36;;;;;;;19.75;5.82;;;22.20;46.20;;;;;;5074714;28;20511;-74
2021/04/05 09:21:15;;;;;;;7.05;3.15;;;23.70;42.70;;;;;;5074693;28;20032;-75
2021/04/05 09:24:18;;;;;;;6.35;3.28;;;22.90;43.60;;;;;;5075014;28;20416;-74
2021/04/05 09:26:55;;;;;;;4.10;3.70;;;22.40;44.60;;;;;;5074264;28;20568;-75
2021/04/05 09:30:02;;;;;;;8.23;3.85;;;22.70;44.40;;;;;;5074808;28;20560;-75
2021/04/05 09:33:09;;;;;;;3.97;3.50;;;23.40;44.30;;;;;;5012843;28;20082;-75
2021/04/05 09:36:13;;;;;;;16.58;4.30;;;23.60;43.40;;;;;;4996402;28;20037;-75
2021/04/05 09:39:12;;;;;;;5.55;3.65;;;25.30;40.50;;;;;;4973620;28;20042;-75
2021/04/05 09:41:59;;;;;;;8.45;3.85;;;25.10;40.90;;;;;;4973402;28;20162;-75
2021/04/05 09:45:02;;;;;;;9.70;3.35;;;25.90;40.40;;;;;;4973755;28;20039;-75
2021/04/05 09:47:43;;;;;;;5.05;3.38;;;25.50;40.90;;;;;;4957434;28;20037;-75
2021/04/05 09:50:50;;;;;;;27.58;5.13;;;24.50;39.80;;;;;;4973392;28;20045;-75
2021/04/05 09:53:40;;;;;;;6.07;2.88;;;22.20;41.60;;;;;;4973309;28;20418;-75
2021/04/05 09:56:14;;;;;;;4.57;3.55;;;21.90;42.30;;;;;;4972720;28;20142;-75
2021/04/05 09:58:50;;;;;;;6.38;3.42;;;23.70;40.80;;;;;;4973412;28;20526;-75
2021/04/05 10:01:21;;;;;;;3.25;2.92;;;25.90;40.10;;;;;;4973334;28;20506;-75
2021/04/05 10:03:52;;;;;;;5.85;3.47;;;28.50;35.80;;;;;;4973147;28;20130;-75
2021/04/05 10:06:18;;;;;;;3.50;3.20;;;28.90;34.20;;;;;;4973287;28;20054;-75
2021/04/05 10:08:47;;;;;;;3.53;3.22;;;29.10;34.20;;;;;;4991308;28;20410;-75
2021/04/05 10:11:14;;;;;;;8.07;3.28;;;29.60;33.40;;;;;;5031862;28;20029;-76
2021/04/05 10:13:51;;;;;;;5.10;3.35;;;30.30;32.00;;;;;;5031912;28;20033;-75
2021/04/05 10:16:21;;;;;;;8.50;3.20;;;30.80;31.20;;;;;;5067184;28;20400;-76
2021/04/05 10:18:49;;;;;;;3.40;2.85;;;30.60;33.20;;;;;;5074001;28;20025;-76
2021/04/05 10:21:17;;;;;;;6.35;3.15;;;30.00;30.90;;;;;;5073748;28;20067;-76
2021/04/05 10:23:44;;;;;;;5.07;3.00;;;30.50;32.30;;;;;;5073621;28;20012;-76
2021/04/05 10:26:14;;;;;;;7.13;3.40;;;30.90;30.80;;;;;;5073481;28;20071;-76
2021/04/05 10:28:43;;;;;;;6.28;3.20;;;30.40;31.70;;;;;;5073775;28;20028;-76
2021/04/05 10:31:14;;;;;;;3.83;3.47;;;29.80;31.90;;;;;;5072461;28;20078;-76
2021/04/05 10:33:44;;;;;;;8.75;3.20;;;30.70;32.50;;;;;;5073774;28;20028;-76
2021/04/05 10:36:16;;;;;;;8.63;3.47;;;29.50;32.00;;;;;;5073511;28;20032;-76
2021/04/05 10:38:41;;;;;;;3.22;2.92;;;29.20;33.50;;;;;;5073189;28;20032;-76
2021/04/05 10:41:10;;;;;;;3.47;2.78;;;30.80;31.00;;;;;;5073519;28;20369;-76
2021/04/05 10:43:46;;;;;;;5.47;3.13;;;30.30;30.90;;;;;;5073738;28;20033;-76
2021/04/05 10:46:16;;;;;;;4.57;3.08;;;32.20;30.30;;;;;;5073279;28;20029;-76
2021/04/05 10:48:47;;;;;;;3.58;2.85;;;32.10;29.20;;;;;;5073401;28;20055;-76
2021/04/05 10:51:21;;;;;;;3.75;2.80;;;31.60;29.20;;;;;;5073303;28;20021;-76
2021/04/05 10:53:56;;;;;;;4.55;3.60;;;32.10;29.70;;;;;;5073167;28;20441;-76
2021/04/05 10:56:24;;;;;;;3.75;3.08;;;32.40;28.80;;;;;;5071694;28;20388;-76
2021/04/05 10:59:06;;;;;;;4.78;3.05;;;33.50;28.90;;;;;;5073228;28;20028;-76
2021/04/05 11:01:40;;;;;;;7.18;3.50;;;33.10;29.70;;;;;;5073081;28;20052;-76
2021/04/05 11:04:09;;;;;;;5.05;3.08;;;33.80;27.70;;;;;;5072853;28;20060;-76
2021/04/05 11:06:35;;;;;;;4.27;3.40;;;32.60;28.80;;;;;;5072082;28;20502;-75
2021/04/05 11:09:07;;;;;;;5.78;3.15;;;33.80;28.50;;;;;;5072730;28;20020;-76
2021/04/05 11:11:34;;;;;;;6.47;3.40;;;35.30;27.00;;;;;;5072967;28;20032;-76
2021/04/05 11:14:04;;;;;;;4.63;2.95;;;35.20;28.00;;;;;;5071403;28;20028;-76
2021/04/05 11:16:31;;;;;;;3.72;3.15;;;34.80;28.90;;;;;;5072707;28;20051;-76
2021/04/05 11:19:08;;;;;;;5.40;3.50;;;35.50;26.60;;;;;;5072778;28;20020;-76
2021/04/05 11:21:50;;;;;;;3.55;3.30;;;35.70;28.50;;;;;;5072329;28;20103;-76
2021/04/05 11:24:17;;;;;;;6.70;3.13;;;36.20;26.60;;;;;;5072613;28;20016;-76
2021/04/05 11:26:45;;;;;;;3.55;3.25;;;37.10;27.60;;;;;;5072401;28;20063;-76
2021/04/05 11:29:14;;;;;;;7.32;3.47;;;37.20;28.00;;;;;;5072592;28;20036;-77
2021/04/05 11:31:41;;;;;;;;;;;35.90;25.40;;;;;;5072855;28;20035;-76
2021/04/05 11:34:08;;;;;;;4.57;3.60;;;34.30;28.40;;;;;;5072428;28;19950;-76
2021/04/05 11:36:40;;;;;;;3.65;3.28;;;35.10;27.80;;;;;;5071869;28;20043;-76
2021/04/05 11:39:10;;;;;;;3.40;3.10;;;36.00;26.70;;;;;;5071257;28;20470;-76
2021/04/05 11:41:37;;;;;;;13.20;3.28;;;34.00;28.40;;;;;;5070824;28;20428;-76
2021/04/05 11:44:05;;;;;;;5.47;3.53;;;31.60;27.40;;;;;;5072215;28;20021;-76
2021/04/05 11:46:36;;;;;;;4.25;3.00;;;32.40;28.00;;;;;;5072192;28;20051;-76
2021/04/05 11:49:02;;;;;;;3.70;2.92;;;30.30;29.00;;;;;;5072193;28;20029;-76
2021/04/05 11:51:32;;;;;;;2.70;2.50;;;32.70;28.70;;;;;;5071635;28;20032;-76
2021/04/05 11:54:02;;;;;;;6.45;3.00;;;34.10;27.50;;;;;;5072217;28;20029;-77
2021/04/05 11:56:30;;;;;;;5.03;3.30;;;35.50;27.80;;;;;;5071930;28;20030;-76
2021/04/05 11:59:08;;;;;;;6.38;3.88;;;35.70;28.20;;;;;;5072179;28;20116;-77
2021/04/05 12:01:44;;;;;;;6.75;3.65;;;36.60;28.90;;;;;;5071719;28;20096;-77
2021/04/05 12:04:18;;;;;;;5.47;3.55;;;36.50;28.60;;;;;;5072025;28;20086;-77
2021/04/05 12:06:52;;;;;;;9.18;3.72;;;34.00;27.70;;;;;;5071618;28;20024;-77
2021/04/05 12:09:27;;;;;;;6.75;4.32;;;34.50;30.30;;;;;;5071940;28;20029;-77
2021/04/05 12:12:02;;;;;;;4.97;3.85;;;35.80;29.80;;;;;;5072026;28;20437;-77
2021/04/05 12:14:30;;;;;;;4.78;3.55;;;36.30;29.50;;;;;;5071733;28;20025;-77
2021/04/05 12:16:58;;;;;;;3.45;3.15;;;36.90;30.00;;;;;;5071592;28;20028;-77
2021/04/05 12:19:32;;;;;;;6.45;4.15;;;36.40;27.60;;;;;;5071516;28;20078;-77
2021/04/05 12:21:59;;;;;;;6.65;4.13;;;36.10;28.70;;;;;;5071702;28;20028;-77
2021/04/05 12:24:31;;;;;;;8.07;4.07;;;36.60;29.20;;;;;;5071858;28;20029;-77
2021/04/05 12:27:05;;;;;;;5.53;3.20;;;36.90;28.00;;;;;;5071621;28;20454;-77
2021/04/05 12:29:33;;;;;;;5.05;2.97;;;36.30;26.60;;;;;;5071617;28;20044;-77
2021/04/05 12:32:02;;;;;;;21.95;3.92;;;35.80;27.10;;;;;;5071701;28;20063;-77
2021/04/05 12:34:37;;;;;;;5.57;3.53;;;33.60;29.40;;;;;;5071385;28;20085;-77
2021/04/05 12:37:12;;;;;;;6.72;3.50;;;32.80;26.90;;;;;;5071824;28;20100;-77
2021/04/05 12:39:38;;;;;;;3.33;3.03;;;30.80;28.60;;;;;;5071572;28;20395;-77
2021/04/05 12:42:09;;;;;;;3.75;2.80;;;30.40;29.20;;;;;;5071717;28;20039;-77
2021/04/05 12:44:37;;;;;;;3.35;2.65;;;32.10;28.40;;;;;;5070167;28;20024;-77
2021/04/05 12:47:09;;;;;;;3.50;2.75;;;32.60;27.70;;;;;;5071654;28;20098;-77
2021/04/05 12:49:37;;;;;;;5.63;3.28;;;30.80;27.80;;;;;;5071246;28;20081;-77
2021/04/05 12:52:09;;;;;;;9.90;3.55;;;32.50;28.60;;;;;;5071613;28;20051;-77
2021/04/05 12:54:37;;;;;;;6.38;2.85;;;30.10;27.90;;;;;;5071452;28;20024;-77
2021/04/05 12:57:05;;;;;;;3.58;2.97;;;30.00;30.00;;;;;;5071511;28;20078;-77
2021/04/05 12:59:34;;;;;;;4.60;2.97;;;29.30;28.30;;;;;;5071416;28;20029;-77
2021/04/05 13:02:17;;;;;;;2.97;2.67;;;29.00;29.40;;;;;;5071360;28;20033;-77
2021/04/05 13:05:08;;;;;;;7.03;2.97;;;30.30;29.70;;;;;;5071006;28;20112;-77
2021/04/05 13:07:48;;;;;;;4.60;3.20;;;30.30;28.50;;;;;;5071295;28;20025;-77
2021/04/05 13:10:37;;;;;;;;;;;29.30;29.60;;;;;;5071700;28;20020;-77
2021/04/05 13:13:10;;;;;;;5.78;2.47;;;30.50;28.10;;;;;;5063039;28;19915;-77
2021/04/05 13:15:37;;;;;;;12.23;3.50;;;31.00;28.00;;;;;;5071339;28;20384;-77
2021/04/05 13:18:24;;;;;;;3.17;2.08;;;28.70;27.40;;;;;;5070900;28;20035;-77
2021/04/05 13:20:56;;;;;;;3.72;2.50;;;28.60;28.80;;;;;;5071045;28;20025;-77
2021/04/05 13:23:24;;;;;;;8.52;2.90;;;27.80;29.50;;;;;;5071469;28;20032;-77
2021/04/05 13:25:57;;;;;;;4.28;2.38;;;28.50;28.80;;;;;;5070902;28;20055;-77
2021/04/05 13:28:27;;;;;;;3.05;2.70;;;30.10;29.20;;;;;;5071348;28;20038;-77
2021/04/05 13:30:59;;;;;;;3.83;2.40;;;31.00;28.30;;;;;;5074469;28;20021;-78